Time;durP1;ratioP1;P1;durP2;ratioP2;P2;SDS_P1;SDS_P2;PMS_P1;PMS_P2;Temp;Humidity;BMP_temperature;BMP_pressure;BME280_temperature;BME280_humidity;BME280_pressure;Samples;Min_cycle;Max_cycle;Signal;HPM_P1;HPM_P2
2024/03/03 00:00:26;;;;;;;189.30;106.20;;;;;;;;;;107018;1256;61162;-83
2024/03/03 00:03:12;;;;;;;178.10;99.60;;;;;;;;;;106962;1253;61112;-83
2024/03/03 00:05:39;;;;;;;200.30;110.30;;;;;;;;;;106946;1253;61259;-81
2024/03/03 00:08:05;;;;;;;180.90;103.70;;;;;;;;;;106885;1253;62240;-81
2024/03/03 00:10:32;;;;;;;189.50;108.80;;;;;;;;;;106783;1258;62224;-81
2024/03/03 00:12:58;;;;;;;194.10;113.50;;;;;;;;;;107107;1253;59253;-82
2024/03/03 00:15:25;;;;;;;185.60;108.10;;;;;;;;;;106961;1253;61455;-83
2024/03/03 00:17:51;;;;;;;197.50;113.90;;;;;;;;;;106357;1253;61257;-81
2024/03/03 00:20:18;;;;;;;176.80;99.10;;;;;;;;;;107064;1253;61164;-81
2024/03/03 00:22:45;;;;;;;183.50;111.20;;;;;;;;;;106915;1253;61196;-83
2024/03/03 00:25:11;;;;;;;185.50;103.20;;;;;;;;;;107085;1254;61226;-83
2024/03/03 00:27:37;;;;;;;180.10;105.20;;;;;;;;;;107075;1255;61065;-82
2024/03/03 00:30:04;;;;;;;193.40;108.60;;;;;;;;;;107064;1253;61229;-82
2024/03/03 00:32:31;;;;;;;173.00;97.30;;;;;;;;;;106917;1258;61362;-81
2024/03/03 00:34:58;;;;;;;164.20;94.20;;;;;;;;;;106928;1254;61208;-82
2024/03/03 00:37:24;;;;;;;164.70;91.90;;;;;;;;;;106955;1252;61852;-81
2024/03/03 00:39:51;;;;;;;143.90;79.90;;;;;;;;;;107112;1253;61164;-83
2024/03/03 00:42:17;;;;;;;128.40;77.60;;;;;;;;;;107128;1253;61122;-82
2024/03/03 00:44:44;;;;;;;135.20;76.90;;;;;;;;;;107054;1253;61256;-83
2024/03/03 00:47:10;;;;;;;131.30;72.90;;;;;;;;;;107074;1256;61451;-83
2024/03/03 00:49:36;;;;;;;121.00;69.70;;;;;;;;;;107081;1253;62346;-82
2024/03/03 00:52:03;;;;;;;125.70;68.50;;;;;;;;;;107088;1253;61435;-82
2024/03/03 00:54:30;;;;;;;111.10;63.30;;;;;;;;;;107099;1256;62363;-83
2024/03/03 00:56:56;;;;;;;110.50;59.90;;;;;;;;;;107132;1253;61250;-81
2024/03/03 00:59:22;;;;;;;110.50;60.90;;;;;;;;;;107133;1256;59589;-81
2024/03/03 01:01:49;;;;;;;115.80;67.90;;;;;;;;;;107167;1256;61132;-83
2024/03/03 01:04:15;;;;;;;134.00;75.80;;;;;;;;;;107064;1253;61372;-82
2024/03/03 01:06:42;;;;;;;135.60;77.20;;;;;;;;;;107054;1253;61210;-82
2024/03/03 01:09:08;;;;;;;129.20;74.90;;;;;;;;;;107081;1252;61291;-81
2024/03/03 01:11:36;;;;;;;124.80;75.30;;;;;;;;;;106860;1252;60546;-82
2024/03/03 01:14:02;;;;;;;125.60;71.20;;;;;;;;;;107060;1254;61276;-82
2024/03/03 01:16:28;;;;;;;117.50;68.50;;;;;;;;;;107119;1253;61163;-81
2024/03/03 01:18:55;;;;;;;106.10;60.60;;;;;;;;;;107149;1252;61343;-81
2024/03/03 01:21:21;;;;;;;103.60;58.90;;;;;;;;;;106924;1257;61342;-83
2024/03/03 01:23:48;;;;;;;91.90;54.10;;;;;;;;;;107137;1253;63356;-83
2024/03/03 01:26:14;;;;;;;87.70;47.50;;;;;;;;;;107145;1252;61740;-82
2024/03/03 01:28:41;;;;;;;88.50;49.50;;;;;;;;;;107099;1253;61222;-81
2024/03/03 01:31:07;;;;;;;88.90;51.20;;;;;;;;;;106966;1253;59446;-83
2024/03/03 01:33:33;;;;;;;93.20;54.20;;;;;;;;;;106508;1254;61364;-81
2024/03/03 01:36:00;;;;;;;105.40;56.30;;;;;;;;;;106935;1254;62292;-83
2024/03/03 01:38:26;;;;;;;111.10;59.00;;;;;;;;;;107047;1256;61259;-82
2024/03/03 01:40:53;;;;;;;103.30;60.00;;;;;;;;;;107070;1256;61333;-82
2024/03/03 01:43:19;;;;;;;146.60;82.30;;;;;;;;;;107090;1256;61286;-84
2024/03/03 01:45:46;;;;;;;114.00;63.40;;;;;;;;;;107068;1253;61396;-82
2024/03/03 01:48:12;;;;;;;102.70;57.90;;;;;;;;;;107076;1256;62456;-82
2024/03/03 01:50:41;;;;;;;103.90;58.00;;;;;;;;;;107080;1253;61277;-83
2024/03/03 01:53:07;;;;;;;104.40;63.10;;;;;;;;;;107048;1253;59641;-82
2024/03/03 01:55:34;;;;;;;112.40;62.30;;;;;;;;;;107094;1253;61334;-84
2024/03/03 01:58:02;;;;;;;108.60;62.60;;;;;;;;;;107133;1252;61263;-83
2024/03/03 02:00:29;;;;;;;108.80;63.70;;;;;;;;;;106948;1252;61283;-82
2024/03/03 02:02:55;;;;;;;103.40;61.60;;;;;;;;;;107036;1253;61238;-85
2024/03/03 02:05:22;;;;;;;101.80;60.40;;;;;;;;;;107218;1253;61253;-82
2024/03/03 02:07:48;;;;;;;106.90;59.10;;;;;;;;;;107187;1256;59280;-82
2024/03/03 02:10:15;;;;;;;105.60;60.50;;;;;;;;;;107177;1254;61359;-82
2024/03/03 02:12:45;;;;;;;99.60;58.50;;;;;;;;;;107237;1255;61084;-83
2024/03/03 02:15:11;;;;;;;104.40;56.70;;;;;;;;;;107180;1251;61148;-83
2024/03/03 02:17:38;;;;;;;102.50;58.70;;;;;;;;;;107150;1252;61633;-83
2024/03/03 02:20:04;;;;;;;99.00;57.80;;;;;;;;;;107119;1251;61323;-82
2024/03/03 02:22:32;;;;;;;108.10;57.90;;;;;;;;;;107148;1254;61097;-83
2024/03/03 02:24:59;;;;;;;107.40;61.30;;;;;;;;;;107100;1254;61292;-82
2024/03/03 02:27:25;;;;;;;113.90;69.70;;;;;;;;;;107092;1251;61346;-82
2024/03/03 02:29:52;;;;;;;110.20;64.90;;;;;;;;;;107112;1255;61241;-82
2024/03/03 02:32:18;;;;;;;101.60;59.20;;;;;;;;;;107200;1251;61336;-82
2024/03/03 02:34:44;;;;;;;96.20;52.50;;;;;;;;;;107129;1255;61085;-84
2024/03/03 02:37:11;;;;;;;91.70;52.40;;;;;;;;;;107100;1251;61375;-83
2024/03/03 02:39:37;;;;;;;95.50;53.90;;;;;;;;;;107109;1253;59173;-83
2024/03/03 02:42:04;;;;;;;93.10;50.60;;;;;;;;;;107174;1251;61141;-83
2024/03/03 02:44:30;;;;;;;91.40;51.00;;;;;;;;;;107094;1253;61204;-82
2024/03/03 02:46:57;;;;;;;82.10;48.40;;;;;;;;;;107190;1254;61266;-82
2024/03/03 02:49:23;;;;;;;86.90;50.20;;;;;;;;;;107153;1256;61262;-82
2024/03/03 02:51:50;;;;;;;81.40;46.90;;;;;;;;;;107210;1254;61232;-83
2024/03/03 02:54:17;;;;;;;80.60;41.50;;;;;;;;;;107082;1253;61192;-82
2024/03/03 02:56:43;;;;;;;75.00;41.90;;;;;;;;;;107046;1253;61173;-82
2024/03/03 02:59:10;;;;;;;71.20;40.10;;;;;;;;;;107065;1254;61062;-84
2024/03/03 03:01:36;;;;;;;74.80;40.80;;;;;;;;;;107067;1256;61227;-82
2024/03/03 03:04:03;;;;;;;76.40;43.50;;;;;;;;;;107054;1253;61260;-82
2024/03/03 03:06:29;;;;;;;86.80;47.20;;;;;;;;;;107071;1253;61144;-83
2024/03/03 03:08:55;;;;;;;83.40;47.90;;;;;;;;;;107128;1254;61016;-82
2024/03/03 03:11:24;;;;;;;92.00;54.40;;;;;;;;;;107056;1254;61316;-83
2024/03/03 03:13:50;;;;;;;99.50;56.50;;;;;;;;;;107020;1253;61070;-83
2024/03/03 03:16:16;;;;;;;99.10;54.50;;;;;;;;;;107070;1253;61306;-82
2024/03/03 03:18:43;;;;;;;94.70;51.10;;;;;;;;;;107124;1253;61221;-83
2024/03/03 03:21:09;;;;;;;83.00;48.40;;;;;;;;;;107064;1256;61255;-83
2024/03/03 03:23:36;;;;;;;81.40;46.30;;;;;;;;;;107127;1254;61247;-82
2024/03/03 03:26:03;;;;;;;70.10;42.10;;;;;;;;;;107045;1254;61234;-82
2024/03/03 03:28:29;;;;;;;80.90;41.10;;;;;;;;;;106918;1253;61129;-83
2024/03/03 03:30:55;;;;;;;69.40;36.30;;;;;;;;;;107038;1256;62321;-83
2024/03/03 03:33:22;;;;;;;70.80;37.80;;;;;;;;;;107017;1252;61324;-83
2024/03/03 03:35:48;;;;;;;77.00;41.70;;;;;;;;;;106951;1254;61218;-82
2024/03/03 03:38:15;;;;;;;79.40;45.10;;;;;;;;;;106823;1253;61263;-82
2024/03/03 03:40:41;;;;;;;91.10;46.10;;;;;;;;;;106977;1253;61243;-83
2024/03/03 03:43:08;;;;;;;78.70;43.20;;;;;;;;;;107037;1254;61244;-83
2024/03/03 03:45:34;;;;;;;76.20;41.50;;;;;;;;;;106914;1252;61331;-82
2024/03/03 03:48:01;;;;;;;72.90;41.10;;;;;;;;;;106982;1258;61333;-83
2024/03/03 03:50:27;;;;;;;64.60;36.80;;;;;;;;;;107021;1253;61361;-83
2024/03/03 03:52:54;;;;;;;70.60;39.10;;;;;;;;;;106910;1253;61282;-83
2024/03/03 03:55:21;;;;;;;65.20;38.50;;;;;;;;;;107071;1256;61150;-83
2024/03/03 03:57:47;;;;;;;75.60;42.30;;;;;;;;;;107119;1256;61259;-83
2024/03/03 04:00:14;;;;;;;74.30;39.80;;;;;;;;;;107089;1256;62035;-83
2024/03/03 04:02:40;;;;;;;72.90;43.40;;;;;;;;;;107097;1253;61326;-83
2024/03/03 04:05:07;;;;;;;65.30;37.30;;;;;;;;;;107091;1254;61247;-83
2024/03/03 04:07:33;;;;;;;69.70;36.10;;;;;;;;;;107033;1256;61222;-83
2024/03/03 04:10:00;;;;;;;64.40;35.40;;;;;;;;;;107044;1253;61974;-82
2024/03/03 04:12:26;;;;;;;55.90;31.90;;;;;;;;;;107047;1252;61347;-82
2024/03/03 04:14:53;;;;;;;67.40;38.40;;;;;;;;;;107111;1253;61111;-83
2024/03/03 04:17:20;;;;;;;63.90;33.80;;;;;;;;;;107035;1254;61254;-83
2024/03/03 04:19:47;;;;;;;62.60;33.90;;;;;;;;;;107027;1254;60263;-82
2024/03/03 04:22:14;;;;;;;54.30;29.60;;;;;;;;;;107084;1253;60241;-84
2024/03/03 04:24:40;;;;;;;53.90;32.10;;;;;;;;;;106996;1254;63079;-83
2024/03/03 04:27:06;;;;;;;50.60;29.80;;;;;;;;;;106985;1253;61243;-82
2024/03/03 04:29:33;;;;;;;49.40;29.00;;;;;;;;;;106963;1256;61276;-82
2024/03/03 04:32:00;;;;;;;53.40;31.10;;;;;;;;;;107088;1254;61358;-83
2024/03/03 04:34:26;;;;;;;49.90;29.60;;;;;;;;;;107074;1253;63101;-83
2024/03/03 04:36:52;;;;;;;51.00;27.80;;;;;;;;;;107118;1253;59718;-82
2024/03/03 04:39:19;;;;;;;54.00;28.20;;;;;;;;;;107014;1253;61107;-82
2024/03/03 04:41:47;;;;;;;44.50;25.90;;;;;;;;;;107079;1256;61109;-82
2024/03/03 04:44:13;;;;;;;62.90;34.50;;;;;;;;;;107102;1255;61228;-83
2024/03/03 04:46:40;;;;;;;66.50;35.80;;;;;;;;;;107141;1254;61895;-84
2024/03/03 04:49:06;;;;;;;48.40;27.80;;;;;;;;;;107043;1257;61260;-82
2024/03/03 04:51:33;;;;;;;49.00;29.50;;;;;;;;;;107119;1253;61232;-83
2024/03/03 04:53:59;;;;;;;52.50;29.40;;;;;;;;;;106956;1252;61355;-82
2024/03/03 04:56:27;;;;;;;50.10;31.80;;;;;;;;;;107131;1256;61227;-84
2024/03/03 04:58:53;;;;;;;51.90;30.10;;;;;;;;;;107123;1254;61248;-82
2024/03/03 05:01:20;;;;;;;50.80;27.60;;;;;;;;;;107117;1254;61315;-82
2024/03/03 05:03:46;;;;;;;50.80;31.20;;;;;;;;;;106914;1256;61257;-82
2024/03/03 05:06:13;;;;;;;59.40;32.30;;;;;;;;;;107112;1253;61437;-83
2024/03/03 05:08:39;;;;;;;50.40;26.80;;;;;;;;;;106908;1255;61222;-84
2024/03/03 05:11:06;;;;;;;48.30;27.60;;;;;;;;;;108397;1254;59116;-82
2024/03/03 05:13:33;;;;;;;48.80;25.90;;;;;;;;;;109507;1252;59043;-82
2024/03/03 05:15:59;;;;;;;53.10;26.80;;;;;;;;;;108426;1254;61139;-84
2024/03/03 05:18:26;;;;;;;54.20;30.40;;;;;;;;;;107069;1254;62329;-84
2024/03/03 05:20:52;;;;;;;49.00;29.80;;;;;;;;;;107147;1254;61238;-84
2024/03/03 05:23:19;;;;;;;51.80;32.10;;;;;;;;;;109110;1253;59272;-83
2024/03/03 05:25:46;;;;;;;58.10;32.20;;;;;;;;;;109493;1253;59106;-85
2024/03/03 05:28:13;;;;;;;48.80;29.60;;;;;;;;;;109419;1252;59712;-83
2024/03/03 05:30:40;;;;;;;54.20;30.90;;;;;;;;;;109317;1254;58944;-83
2024/03/03 05:33:07;;;;;;;47.80;30.50;;;;;;;;;;107216;1256;61208;-82
2024/03/03 05:35:34;;;;;;;56.60;29.30;;;;;;;;;;106996;1253;59875;-84
2024/03/03 05:38:03;;;;;;;52.00;28.70;;;;;;;;;;107041;1253;61317;-85
2024/03/03 05:40:29;;;;;;;47.80;29.60;;;;;;;;;;107048;1256;61322;-82
2024/03/03 05:42:56;;;;;;;43.90;25.80;;;;;;;;;;106966;1257;59288;-85
2024/03/03 05:45:22;;;;;;;69.30;38.40;;;;;;;;;;106877;1253;236012;-83
2024/03/03 05:47:49;;;;;;;50.40;30.60;;;;;;;;;;107073;1253;61227;-82
2024/03/03 05:50:16;;;;;;;71.30;37.90;;;;;;;;;;107071;1254;61253;-83
2024/03/03 05:52:42;;;;;;;57.10;33.40;;;;;;;;;;106932;1254;61301;-83
2024/03/03 05:55:09;;;;;;;57.70;32.80;;;;;;;;;;106921;1257;61299;-83
2024/03/03 05:57:35;;;;;;;57.70;31.80;;;;;;;;;;107064;1254;59114;-82
2024/03/03 06:00:05;;;;;;;53.90;28.30;;;;;;;;;;107064;1256;59540;-83
2024/03/03 06:02:32;;;;;;;53.10;28.60;;;;;;;;;;107034;1254;61129;-83
2024/03/03 06:04:58;;;;;;;40.60;24.70;;;;;;;;;;107064;1254;61110;-82
2024/03/03 06:07:25;;;;;;;49.90;27.20;;;;;;;;;;107012;1256;59649;-82
2024/03/03 06:09:51;;;;;;;53.00;29.10;;;;;;;;;;107061;1252;60706;-82
2024/03/03 06:12:18;;;;;;;47.70;29.50;;;;;;;;;;106856;1254;61262;-83
2024/03/03 06:14:47;;;;;;;44.50;25.80;;;;;;;;;;107062;1256;62316;-83
2024/03/03 06:17:14;;;;;;;40.80;26.30;;;;;;;;;;107007;1253;61237;-81
2024/03/03 06:19:40;;;;;;;45.10;27.10;;;;;;;;;;107080;1253;61232;-83
2024/03/03 06:22:07;;;;;;;57.00;31.70;;;;;;;;;;107003;1256;61368;-83
2024/03/03 06:24:34;;;;;;;55.80;34.20;;;;;;;;;;107061;1254;63381;-83
2024/03/03 06:27:01;;;;;;;65.50;41.40;;;;;;;;;;107008;1256;61231;-83
2024/03/03 06:29:27;;;;;;;63.50;37.90;;;;;;;;;;107001;1253;61324;-82
2024/03/03 06:31:54;;;;;;;71.20;40.30;;;;;;;;;;107097;1257;61359;-81
2024/03/03 06:34:20;;;;;;;79.10;44.50;;;;;;;;;;107036;1256;61298;-83
2024/03/03 06:36:46;;;;;;;77.60;46.30;;;;;;;;;;107018;1254;61059;-83
2024/03/03 06:39:14;;;;;;;80.60;47.40;;;;;;;;;;106882;1259;61235;-82
2024/03/03 06:41:42;;;;;;;69.70;40.10;;;;;;;;;;106981;1256;61230;-83
2024/03/03 06:44:08;;;;;;;56.80;34.90;;;;;;;;;;107081;1253;61318;-83
2024/03/03 06:46:35;;;;;;;55.10;34.30;;;;;;;;;;106999;1254;61114;-83
2024/03/03 06:49:01;;;;;;;61.80;35.30;;;;;;;;;;106965;1253;61320;-82
2024/03/03 06:51:27;;;;;;;61.70;36.40;;;;;;;;;;106991;1256;60570;-82
2024/03/03 06:53:54;;;;;;;52.90;34.90;;;;;;;;;;107418;1253;61257;-83
2024/03/03 06:56:20;;;;;;;47.80;29.40;;;;;;;;;;109489;1253;59060;-83
2024/03/03 06:58:47;;;;;;;50.30;30.70;;;;;;;;;;107472;1253;61345;-83
2024/03/03 07:01:13;;;;;;;50.40;32.30;;;;;;;;;;108342;1256;61231;-82
2024/03/03 07:04:04;;;;;;;51.10;32.10;;;;;;;;;;107114;1253;61272;-82
2024/03/03 07:06:29;;;;;;;51.80;29.80;;;;;;;;;;107030;1254;61186;-82
2024/03/03 07:08:56;;;;;;;38.00;25.50;;;;;;;;;;109469;1252;59077;-81
2024/03/03 07:11:23;;;;;;;41.40;27.20;;;;;;;;;;109519;1253;59155;-82
2024/03/03 07:13:49;;;;;;;40.10;24.90;;;;;;;;;;109467;1253;63475;-83
2024/03/03 07:16:16;;;;;;;37.10;25.20;;;;;;;;;;109464;1254;59139;-82
2024/03/03 07:18:42;;;;;;;40.20;25.80;;;;;;;;;;109490;1252;58891;-83
2024/03/03 07:21:09;;;;;;;44.40;28.30;;;;;;;;;;109463;1254;58889;-82
2024/03/03 07:23:36;;;;;;;44.60;28.50;;;;;;;;;;109499;1254;59246;-82
2024/03/03 07:26:02;;;;;;;41.80;27.50;;;;;;;;;;108435;1256;61161;-83
2024/03/03 07:28:29;;;;;;;35.70;27.00;;;;;;;;;;107009;1254;61023;-82
2024/03/03 07:30:55;;;;;;;36.20;26.30;;;;;;;;;;107046;1254;61231;-82
2024/03/03 07:33:22;;;;;;;39.70;27.80;;;;;;;;;;106996;1252;61125;-83
2024/03/03 07:35:48;;;;;;;38.10;27.90;;;;;;;;;;107016;1253;61091;-83
2024/03/03 07:38:15;;;;;;;40.10;28.30;;;;;;;;;;107051;1253;61316;-82
2024/03/03 07:40:44;;;;;;;43.10;28.90;;;;;;;;;;106836;1254;61237;-82
2024/03/03 07:43:11;;;;;;;34.60;24.80;;;;;;;;;;107067;1256;60251;-82
2024/03/03 07:45:38;;;;;;;39.00;25.00;;;;;;;;;;107055;1256;61256;-82
2024/03/03 07:48:04;;;;;;;35.00;24.40;;;;;;;;;;106893;1253;60519;-82
2024/03/03 07:50:30;;;;;;;37.10;22.90;;;;;;;;;;106984;1256;61252;-82
2024/03/03 07:52:57;;;;;;;33.90;23.60;;;;;;;;;;106993;1254;62109;-82
2024/03/03 07:55:24;;;;;;;39.10;27.00;;;;;;;;;;106981;1254;59809;-81
2024/03/03 07:57:50;;;;;;;41.70;30.60;;;;;;;;;;106994;1254;61322;-82
2024/03/03 08:00:17;;;;;;;42.60;31.10;;;;;;;;;;106947;1256;61157;-82
2024/03/03 08:02:43;;;;;;;40.80;31.80;;;;;;;;;;107041;1256;61331;-81
2024/03/03 08:05:10;;;;;;;50.60;34.90;;;;;;;;;;107026;1255;61170;-84
2024/03/03 08:07:37;;;;;;;53.80;38.20;;;;;;;;;;107048;1256;61129;-82
2024/03/03 08:10:05;;;;;;;82.20;55.50;;;;;;;;;;107052;1253;61344;-83
2024/03/03 08:12:31;;;;;;;55.40;37.70;;;;;;;;;;107100;1252;61296;-84
2024/03/03 08:14:59;;;;;;;46.10;32.40;;;;;;;;;;107085;1253;61898;-82
2024/03/03 08:17:25;;;;;;;47.40;33.90;;;;;;;;;;106918;1255;61270;-83
2024/03/03 08:19:52;;;;;;;32.00;23.10;;;;;;;;;;107117;1256;59534;-83
2024/03/03 08:22:19;;;;;;;31.80;22.00;;;;;;;;;;107106;1254;61223;-84
2024/03/03 08:24:45;;;;;;;31.30;19.20;;;;;;;;;;107043;1256;61334;-84
2024/03/03 08:27:11;;;;;;;28.90;20.80;;;;;;;;;;106954;1254;61203;-84
2024/03/03 08:29:38;;;;;;;25.90;18.00;;;;;;;;;;106980;1256;61438;-84
2024/03/03 08:32:06;;;;;;;21.90;16.40;;;;;;;;;;106879;1258;61231;-84
2024/03/03 08:34:32;;;;;;;25.80;17.90;;;;;;;;;;107061;1257;61283;-83
2024/03/03 08:36:58;;;;;;;26.80;17.90;;;;;;;;;;107118;1256;59461;-84
2024/03/03 08:39:25;;;;;;;37.00;24.10;;;;;;;;;;107108;1257;61256;-83
2024/03/03 08:41:51;;;;;;;25.60;19.60;;;;;;;;;;107113;1255;61243;-84
2024/03/03 08:44:18;;;;;;;21.50;14.40;;;;;;;;;;107128;1252;61234;-83
2024/03/03 08:46:45;;;;;;;18.40;12.60;;;;;;;;;;107117;1256;61202;-83
2024/03/03 08:49:12;;;;;;;26.60;16.30;;;;;;;;;;107191;1251;61188;-84
2024/03/03 08:51:39;;;;;;;19.80;12.80;;;;;;;;;;107191;1256;61335;-84
2024/03/03 08:54:06;;;;;;;16.50;11.50;;;;;;;;;;107065;1256;61373;-84
2024/03/03 08:56:32;;;;;;;11.60;9.60;;;;;;;;;;107074;1253;61192;-84
2024/03/03 08:58:59;;;;;;;16.90;11.20;;;;;;;;;;107075;1254;61352;-84
2024/03/03 09:01:25;;;;;;;9.60;7.30;;;;;;;;;;107024;1257;61189;-84
2024/03/03 09:03:52;;;;;;;7.40;5.80;;;;;;;;;;107102;1257;61233;-85
2024/03/03 09:06:18;;;;;;;8.50;6.10;;;;;;;;;;107005;1256;59842;-83
2024/03/03 09:08:46;;;;;;;8.70;6.00;;;;;;;;;;107042;1256;61246;-83
2024/03/03 09:11:13;;;;;;;9.60;6.80;;;;;;;;;;107021;1254;61135;-83
2024/03/03 09:13:40;;;;;;;8.30;5.70;;;;;;;;;;109473;1253;58895;-85
2024/03/03 09:16:07;;;;;;;9.20;6.30;;;;;;;;;;107703;1254;61305;-84
2024/03/03 09:18:34;;;;;;;10.80;7.10;;;;;;;;;;107060;1254;61276;-84
2024/03/03 09:21:00;;;;;;;9.20;6.40;;;;;;;;;;107035;1257;61372;-84
2024/03/03 09:23:27;;;;;;;9.10;5.10;;;;;;;;;;107092;1253;61203;-84
2024/03/03 09:25:57;;;;;;;8.80;6.00;;;;;;;;;;107095;1254;62422;-82
2024/03/03 09:28:24;;;;;;;9.80;7.40;;;;;;;;;;107097;1256;62587;-84
2024/03/03 09:30:50;;;;;;;8.90;5.70;;;;;;;;;;107132;1254;61679;-82
2024/03/03 09:33:17;;;;;;;6.60;4.40;;;;;;;;;;106884;1257;61317;-82
2024/03/03 09:35:43;;;;;;;6.10;3.60;;;;;;;;;;107049;1257;61241;-83
2024/03/03 09:38:10;;;;;;;8.30;4.70;;;;;;;;;;107073;1255;61253;-84
2024/03/03 09:40:36;;;;;;;7.60;4.20;;;;;;;;;;107107;1254;61259;-82
2024/03/03 09:43:03;;;;;;;6.00;4.40;;;;;;;;;;107062;1256;60740;-82
2024/03/03 09:45:29;;;;;;;9.30;4.90;;;;;;;;;;107009;1256;61282;-84
2024/03/03 09:47:56;;;;;;;7.30;4.50;;;;;;;;;;107099;1256;61230;-84
2024/03/03 09:50:23;;;;;;;7.60;5.20;;;;;;;;;;107061;1254;61160;-83
2024/03/03 09:52:50;;;;;;;6.40;3.90;;;;;;;;;;107055;1253;61882;-84
2024/03/03 09:55:16;;;;;;;6.00;4.20;;;;;;;;;;107044;1256;61254;-84
2024/03/03 09:57:43;;;;;;;8.20;5.60;;;;;;;;;;107048;1253;61135;-82
2024/03/03 10:00:11;;;;;;;8.30;4.90;;;;;;;;;;106941;1257;61326;-82
2024/03/03 10:02:37;;;;;;;32.80;6.30;;;;;;;;;;107071;1254;61064;-84
2024/03/03 10:05:05;;;;;;;13.40;5.90;;;;;;;;;;106993;1254;61276;-82
2024/03/03 10:07:34;;;;;;;10.30;4.90;;;;;;;;;;107050;1254;61218;-84
2024/03/03 10:10:02;;;;;;;8.50;5.60;;;;;;;;;;107054;1255;61259;-84
2024/03/03 10:12:32;;;;;;;12.50;5.30;;;;;;;;;;107091;1254;61161;-82
2024/03/03 10:14:59;;;;;;;8.20;5.70;;;;;;;;;;107073;1254;61280;-82
2024/03/03 10:17:25;;;;;;;7.80;4.70;;;;;;;;;;106889;1254;61372;-82
2024/03/03 10:19:52;;;;;;;9.60;5.10;;;;;;;;;;107084;1254;61233;-81
2024/03/03 10:22:19;;;;;;;6.20;4.30;;;;;;;;;;106994;1254;61233;-83
2024/03/03 10:24:45;;;;;;;13.40;4.70;;;;;;;;;;109457;1254;58870;-82
2024/03/03 10:27:16;;;;;;;9.20;5.10;;;;;;;;;;109504;1253;59149;-83
2024/03/03 10:29:46;;;;;;;7.50;4.60;;;;;;;;;;109495;1254;62040;-84
2024/03/03 10:32:12;;;;;;;8.70;4.80;;;;;;;;;;108588;1254;59808;-84
2024/03/03 10:34:39;;;;;;;8.50;4.40;;;;;;;;;;107073;1254;61279;-83
2024/03/03 10:37:05;;;;;;;6.80;4.60;;;;;;;;;;106881;1255;61422;-83
2024/03/03 10:39:32;;;;;;;8.30;4.30;;;;;;;;;;106951;1257;61342;-82
2024/03/03 10:41:59;;;;;;;9.80;4.20;;;;;;;;;;107162;1254;61100;-82
2024/03/03 10:44:25;;;;;;;5.90;4.40;;;;;;;;;;106994;1254;61468;-82
2024/03/03 10:46:51;;;;;;;9.10;4.80;;;;;;;;;;107077;1254;61263;-83
2024/03/03 10:49:19;;;;;;;8.80;5.30;;;;;;;;;;107023;1254;61216;-82
2024/03/03 10:51:45;;;;;;;13.60;4.60;;;;;;;;;;107073;1253;61372;-82
2024/03/03 10:54:12;;;;;;;7.30;4.00;;;;;;;;;;106923;1254;61266;-82
2024/03/03 10:56:38;;;;;;;11.10;4.30;;;;;;;;;;107086;1252;61097;-83
2024/03/03 10:59:05;;;;;;;8.20;4.30;;;;;;;;;;107031;1254;61318;-82
2024/03/03 11:01:32;;;;;;;6.20;4.10;;;;;;;;;;106934;1254;60245;-83
2024/03/03 11:03:59;;;;;;;6.90;4.00;;;;;;;;;;107078;1253;61180;-83
2024/03/03 11:06:25;;;;;;;8.50;4.70;;;;;;;;;;107069;1254;61257;-82
2024/03/03 11:08:52;;;;;;;8.20;5.60;;;;;;;;;;107095;1254;61640;-83
2024/03/03 11:11:20;;;;;;;6.40;3.70;;;;;;;;;;107032;1257;59705;-84
2024/03/03 11:13:57;;;;;;;9.70;4.50;;;;;;;;;;107099;1253;61494;-84
2024/03/03 11:16:28;;;;;;;7.10;4.20;;;;;;;;;;106918;1254;60817;-82
2024/03/03 11:18:56;;;;;;;9.30;3.90;;;;;;;;;;107094;1254;62025;-83
2024/03/03 11:21:26;;;;;;;5.90;3.40;;;;;;;;;;107064;1254;61762;-82
2024/03/03 11:24:02;;;;;;;9.70;5.50;;;;;;;;;;107050;1254;61170;-82
2024/03/03 11:26:29;;;;;;;6.70;3.60;;;;;;;;;;107036;1255;61105;-82
2024/03/03 11:28:58;;;;;;;4.20;3.20;;;;;;;;;;107071;1254;61132;-84
2024/03/03 11:31:25;;;;;;;8.30;3.80;;;;;;;;;;107025;1253;60743;-82
2024/03/03 11:33:51;;;;;;;6.50;3.70;;;;;;;;;;106940;1254;61147;-82
2024/03/03 11:36:18;;;;;;;7.40;4.50;;;;;;;;;;107042;1253;61235;-82
2024/03/03 11:38:45;;;;;;;4.60;3.20;;;;;;;;;;106983;1255;61359;-83
2024/03/03 11:41:12;;;;;;;8.20;4.00;;;;;;;;;;107155;1254;61263;-83
2024/03/03 11:43:39;;;;;;;7.40;4.20;;;;;;;;;;106868;1259;61966;-82
2024/03/03 11:46:06;;;;;;;8.80;4.00;;;;;;;;;;107048;1254;61273;-84
2024/03/03 11:48:35;;;;;;;4.70;3.30;;;;;;;;;;107069;1254;61228;-84
2024/03/03 11:51:21;;;;;;;5.10;3.60;;;;;;;;;;107097;1255;61334;-82
2024/03/03 11:53:57;;;;;;;6.70;4.00;;;;;;;;;;106978;1254;61333;-82
2024/03/03 11:56:24;;;;;;;7.90;3.60;;;;;;;;;;107007;1254;61929;-82
2024/03/03 11:58:51;;;;;;;12.90;4.80;;;;;;;;;;106944;1255;61393;-81
2024/03/03 12:01:23;;;;;;;4.90;3.30;;;;;;;;;;106890;1253;61346;-84
2024/03/03 12:03:50;;;;;;;7.60;4.10;;;;;;;;;;106905;1255;61268;-82
2024/03/03 12:06:16;;;;;;;5.60;3.50;;;;;;;;;;107060;1254;61253;-84
2024/03/03 12:08:43;;;;;;;7.60;5.20;;;;;;;;;;106868;1254;61253;-83
2024/03/03 12:11:13;;;;;;;8.40;5.60;;;;;;;;;;107083;1254;61354;-84
2024/03/03 12:13:40;;;;;;;8.80;5.90;;;;;;;;;;106940;1254;61239;-84
2024/03/03 12:16:07;;;;;;;5.50;3.90;;;;;;;;;;107081;1254;61167;-82
2024/03/03 12:18:34;;;;;;;9.30;5.00;;;;;;;;;;107122;1252;61244;-82
2024/03/03 12:21:01;;;;;;;8.90;4.40;;;;;;;;;;107026;1256;60322;-83
2024/03/03 12:23:28;;;;;;;10.20;6.90;;;;;;;;;;107085;1253;61050;-83
2024/03/03 12:25:55;;;;;;;10.30;6.80;;;;;;;;;;106925;1252;60832;-84
2024/03/03 12:28:23;;;;;;;15.90;4.00;;;;;;;;;;107056;1256;61135;-82
2024/03/03 12:30:50;;;;;;;;;;;;;;;;;;107053;1254;61138;-83
2024/03/03 12:33:17;;;;;;;4.80;3.40;;;;;;;;;;107071;1251;61246;-83
2024/03/03 12:35:45;;;;;;;4.80;4.00;;;;;;;;;;107137;1251;60943;-84
2024/03/03 12:38:11;;;;;;;8.40;3.40;;;;;;;;;;107123;1251;61346;-84
2024/03/03 12:40:38;;;;;;;9.00;4.80;;;;;;;;;;107041;1254;61285;-81
2024/03/03 12:43:04;;;;;;;7.50;3.30;;;;;;;;;;107047;1257;59915;-83
2024/03/03 12:45:32;;;;;;;9.70;2.90;;;;;;;;;;107134;1251;61084;-84
2024/03/03 12:47:58;;;;;;;8.10;4.50;;;;;;;;;;107164;1251;61389;-83
2024/03/03 12:50:25;;;;;;;5.90;3.70;;;;;;;;;;107122;1255;61250;-84
2024/03/03 12:52:51;;;;;;;4.00;2.70;;;;;;;;;;107149;1253;61368;-82
2024/03/03 12:55:23;;;;;;;4.80;3.30;;;;;;;;;;107073;1256;61150;-84
2024/03/03 12:57:50;;;;;;;7.00;4.70;;;;;;;;;;107120;1256;61890;-84
2024/03/03 13:00:16;;;;;;;10.70;4.20;;;;;;;;;;107059;1253;61097;-84
2024/03/03 13:02:43;;;;;;;6.40;4.70;;;;;;;;;;107065;1253;60610;-84
2024/03/03 13:05:10;;;;;;;7.70;4.20;;;;;;;;;;106974;1254;60648;-84
2024/03/03 13:07:37;;;;;;;8.00;4.60;;;;;;;;;;107073;1256;61053;-82
2024/03/03 13:10:16;;;;;;;7.90;5.10;;;;;;;;;;107064;1256;62063;-84
2024/03/03 13:12:50;;;;;;;9.50;4.50;;;;;;;;;;107171;1254;61264;-82
2024/03/03 13:15:18;;;;;;;8.70;5.30;;;;;;;;;;107105;1254;61247;-82
2024/03/03 13:17:48;;;;;;;17.10;4.70;;;;;;;;;;107098;1252;61294;-83
2024/03/03 13:20:15;;;;;;;9.40;5.70;;;;;;;;;;107056;1253;61263;-82
2024/03/03 13:22:41;;;;;;;6.50;4.30;;;;;;;;;;107094;1253;61145;-84
2024/03/03 13:25:08;;;;;;;7.20;6.30;;;;;;;;;;107089;1254;61135;-83
2024/03/03 13:27:35;;;;;;;5.70;4.20;;;;;;;;;;107071;1254;61042;-83
2024/03/03 13:30:06;;;;;;;7.00;3.90;;;;;;;;;;106963;1254;62755;-83
2024/03/03 13:32:33;;;;;;;5.40;4.00;;;;;;;;;;107120;1252;59623;-83
2024/03/03 13:34:59;;;;;;;4.10;3.50;;;;;;;;;;107080;1253;60826;-83
2024/03/03 13:37:26;;;;;;;5.50;3.10;;;;;;;;;;107027;1256;61185;-82
2024/03/03 13:39:52;;;;;;;7.90;4.10;;;;;;;;;;107097;1252;61252;-83
2024/03/03 13:42:19;;;;;;;11.70;5.40;;;;;;;;;;107030;1253;61141;-84
2024/03/03 13:44:45;;;;;;;6.60;3.90;;;;;;;;;;109122;1252;61235;-82
2024/03/03 13:47:12;;;;;;;6.20;3.60;;;;;;;;;;109456;1252;59164;-82
2024/03/03 13:49:38;;;;;;;5.10;3.20;;;;;;;;;;107022;1253;61233;-83
2024/03/03 13:52:11;;;;;;;6.20;2.70;;;;;;;;;;107046;1254;60255;-82
2024/03/03 13:54:38;;;;;;;7.10;3.20;;;;;;;;;;106856;1254;61228;-82
2024/03/03 13:57:04;;;;;;;9.50;3.50;;;;;;;;;;107025;1252;61260;-82
2024/03/03 13:59:31;;;;;;;6.00;2.70;;;;;;;;;;107063;1253;61128;-83
2024/03/03 14:01:58;;;;;;;28.70;17.00;;;;;;;;;;107000;1257;61317;-83
2024/03/03 14:04:25;;;;;;;10.70;7.00;;;;;;;;;;107075;1254;61268;-83
2024/03/03 14:06:51;;;;;;;5.60;3.40;;;;;;;;;;107075;1253;61245;-81
2024/03/03 14:09:18;;;;;;;5.20;3.50;;;;;;;;;;107142;1256;61487;-82